sensor_id;sensor_type;location;lat;lon;timestamp;temperature;humidity
18694;DHT22;9477;51.414;10.362;2022-10-26T00:00:08;13.10;85.00
18694;DHT22;9477;51.414;10.362;2022-10-26T00:02:11;13.10;85.10
18694;DHT22;9477;51.414;10.362;2022-10-26T00:04:14;13.10;84.80
18694;DHT22;9477;51.414;10.362;2022-10-26T00:06:20;13.10;84.90
18694;DHT22;9477;51.414;10.362;2022-10-26T00:08:25;13.00;85.20
18694;DHT22;9477;51.414;10.362;2022-10-26T00:10:28;13.00;85.40
18694;DHT22;9477;51.414;10.362;2022-10-26T00:12:32;13.10;85.20
18694;DHT22;9477;51.414;10.362;2022-10-26T00:14:35;13.00;85.20
18694;DHT22;9477;51.414;10.362;2022-10-26T00:16:38;13.00;85.20
18694;DHT22;9477;51.414;10.362;2022-10-26T00:18:41;13.00;85.00
18694;DHT22;9477;51.414;10.362;2022-10-26T00:20:44;13.10;85.30
18694;DHT22;9477;51.414;10.362;2022-10-26T00:22:49;13.10;85.80
18694;DHT22;9477;51.414;10.362;2022-10-26T00:24:52;13.10;85.20
18694;DHT22;9477;51.414;10.362;2022-10-26T00:26:55;13.10;85.50
18694;DHT22;9477;51.414;10.362;2022-10-26T00:28:58;13.10;85.60
18694;DHT22;9477;51.414;10.362;2022-10-26T00:31:01;13.10;85.40
18694;DHT22;9477;51.414;10.362;2022-10-26T00:33:05;13.10;85.60
18694;DHT22;9477;51.414;10.362;2022-10-26T00:35:08;13.10;85.50
18694;DHT22;9477;51.414;10.362;2022-10-26T00:37:23;13.10;85.30
18694;DHT22;9477;51.414;10.362;2022-10-26T00:39:28;13.20;85.70
18694;DHT22;9477;51.414;10.362;2022-10-26T00:41:32;13.20;85.70
18694;DHT22;9477;51.414;10.362;2022-10-26T00:43:37;13.30;85.90
18694;DHT22;9477;51.414;10.362;2022-10-26T00:45:41;13.30;85.90
18694;DHT22;9477;51.414;10.362;2022-10-26T00:47:46;13.30;85.90
18694;DHT22;9477;51.414;10.362;2022-10-26T00:49:51;13.30;86.10
18694;DHT22;9477;51.414;10.362;2022-10-26T00:51:56;13.30;86.20
18694;DHT22;9477;51.414;10.362;2022-10-26T00:53:59;13.30;86.20
18694;DHT22;9477;51.414;10.362;2022-10-26T00:56:06;13.40;86.40
18694;DHT22;9477;51.414;10.362;2022-10-26T00:58:10;13.40;86.40
18694;DHT22;9477;51.414;10.362;2022-10-26T01:00:14;13.40;86.50
18694;DHT22;9477;51.414;10.362;2022-10-26T01:02:17;13.40;86.40
18694;DHT22;9477;51.414;10.362;2022-10-26T01:04:20;13.50;86.50
18694;DHT22;9477;51.414;10.362;2022-10-26T01:06:23;13.40;86.40
18694;DHT22;9477;51.414;10.362;2022-10-26T01:08:27;13.50;86.60
18694;DHT22;9477;51.414;10.362;2022-10-26T01:10:31;13.50;86.70
18694;DHT22;9477;51.414;10.362;2022-10-26T01:12:37;13.60;86.80
18694;DHT22;9477;51.414;10.362;2022-10-26T01:14:40;13.60;86.70
18694;DHT22;9477;51.414;10.362;2022-10-26T01:16:52;13.60;86.70
18694;DHT22;9477;51.414;10.362;2022-10-26T01:19:13;13.60;86.90
18694;DHT22;9477;51.414;10.362;2022-10-26T01:21:39;13.70;87.00
18694;DHT22;9477;51.414;10.362;2022-10-26T01:23:58;13.70;87.10
18694;DHT22;9477;51.414;10.362;2022-10-26T01:26:16;13.70;87.20
18694;DHT22;9477;51.414;10.362;2022-10-26T01:28:38;13.70;87.50
18694;DHT22;9477;51.414;10.362;2022-10-26T01:30:48;13.70;87.50
18694;DHT22;9477;51.414;10.362;2022-10-26T01:33:04;13.70;87.30
18694;DHT22;9477;51.414;10.362;2022-10-26T01:35:14;13.70;87.40
18694;DHT22;9477;51.414;10.362;2022-10-26T01:37:23;13.70;87.30
18694;DHT22;9477;51.414;10.362;2022-10-26T01:39:35;13.80;87.30
18694;DHT22;9477;51.414;10.362;2022-10-26T01:41:45;13.80;87.50
18694;DHT22;9477;51.414;10.362;2022-10-26T01:43:54;13.80;87.50
18694;DHT22;9477;51.414;10.362;2022-10-26T01:45:59;13.80;87.30
18694;DHT22;9477;51.414;10.362;2022-10-26T01:48:04;13.80;87.30
18694;DHT22;9477;51.414;10.362;2022-10-26T01:50:09;13.80;87.50
18694;DHT22;9477;51.414;10.362;2022-10-26T01:52:13;13.80;87.50
18694;DHT22;9477;51.414;10.362;2022-10-26T01:54:16;13.80;87.70
18694;DHT22;9477;51.414;10.362;2022-10-26T01:56:20;13.80;87.50
18694;DHT22;9477;51.414;10.362;2022-10-26T01:59:11;13.80;87.60
18694;DHT22;9477;51.414;10.362;2022-10-26T02:01:32;13.80;87.60
18694;DHT22;9477;51.414;10.362;2022-10-26T02:03:40;13.80;87.60
18694;DHT22;9477;51.414;10.362;2022-10-26T02:05:58;13.80;87.50
18694;DHT22;9477;51.414;10.362;2022-10-26T02:10:48;13.70;87.40
18694;DHT22;9477;51.414;10.362;2022-10-26T02:13:00;13.80;87.50
18694;DHT22;9477;51.414;10.362;2022-10-26T02:15:07;13.80;87.40
18694;DHT22;9477;51.414;10.362;2022-10-26T02:17:16;13.80;87.50
18694;DHT22;9477;51.414;10.362;2022-10-26T02:19:35;13.80;87.50
18694;DHT22;9477;51.414;10.362;2022-10-26T02:21:44;13.70;87.50
18694;DHT22;9477;51.414;10.362;2022-10-26T02:23:51;13.80;87.70
18694;DHT22;9477;51.414;10.362;2022-10-26T02:25:58;13.70;87.70
18694;DHT22;9477;51.414;10.362;2022-10-26T02:28:04;13.70;87.40
18694;DHT22;9477;51.414;10.362;2022-10-26T02:30:10;13.70;87.50
18694;DHT22;9477;51.414;10.362;2022-10-26T02:32:16;13.70;87.30
18694;DHT22;9477;51.414;10.362;2022-10-26T02:34:25;13.70;87.40
18694;DHT22;9477;51.414;10.362;2022-10-26T02:36:32;13.70;87.20
18694;DHT22;9477;51.414;10.362;2022-10-26T02:38:37;13.70;87.20
18694;DHT22;9477;51.414;10.362;2022-10-26T02:40:41;13.70;87.10
18694;DHT22;9477;51.414;10.362;2022-10-26T02:42:45;13.70;87.20
18694;DHT22;9477;51.414;10.362;2022-10-26T02:44:51;13.70;87.10
18694;DHT22;9477;51.414;10.362;2022-10-26T02:46:55;13.60;86.90
18694;DHT22;9477;51.414;10.362;2022-10-26T02:49:01;13.60;87.00
18694;DHT22;9477;51.414;10.362;2022-10-26T02:51:09;13.60;86.70
18694;DHT22;9477;51.414;10.362;2022-10-26T02:53:15;13.60;86.90
18694;DHT22;9477;51.414;10.362;2022-10-26T02:55:24;13.50;87.00
18694;DHT22;9477;51.414;10.362;2022-10-26T02:57:33;13.50;87.10
18694;DHT22;9477;51.414;10.362;2022-10-26T02:59:41;13.40;87.30
18694;DHT22;9477;51.414;10.362;2022-10-26T03:01:45;13.40;87.30
18694;DHT22;9477;51.414;10.362;2022-10-26T03:03:49;13.50;87.50
18694;DHT22;9477;51.414;10.362;2022-10-26T03:05:53;13.40;87.50
18694;DHT22;9477;51.414;10.362;2022-10-26T03:07:57;13.50;87.20
18694;DHT22;9477;51.414;10.362;2022-10-26T03:10:00;13.40;87.80
18694;DHT22;9477;51.414;10.362;2022-10-26T03:12:04;13.40;86.90
18694;DHT22;9477;51.414;10.362;2022-10-26T03:14:07;13.40;86.70
18694;DHT22;9477;51.414;10.362;2022-10-26T03:16:10;13.40;86.40
18694;DHT22;9477;51.414;10.362;2022-10-26T03:18:13;13.40;86.60
18694;DHT22;9477;51.414;10.362;2022-10-26T03:20:16;13.30;86.30
18694;DHT22;9477;51.414;10.362;2022-10-26T03:22:20;13.30;86.20
18694;DHT22;9477;51.414;10.362;2022-10-26T03:24:23;13.30;86.20
18694;DHT22;9477;51.414;10.362;2022-10-26T03:26:26;13.20;86.10
18694;DHT22;9477;51.414;10.362;2022-10-26T03:28:31;13.20;86.30
18694;DHT22;9477;51.414;10.362;2022-10-26T03:30:33;13.20;86.60
18694;DHT22;9477;51.414;10.362;2022-10-26T03:32:37;13.20;86.40
18694;DHT22;9477;51.414;10.362;2022-10-26T03:34:40;13.20;86.40
18694;DHT22;9477;51.414;10.362;2022-10-26T03:36:43;13.20;86.20
18694;DHT22;9477;51.414;10.362;2022-10-26T03:38:48;13.20;86.40
18694;DHT22;9477;51.414;10.362;2022-10-26T03:40:51;13.20;86.20
18694;DHT22;9477;51.414;10.362;2022-10-26T03:42:54;13.20;86.10
18694;DHT22;9477;51.414;10.362;2022-10-26T03:44:57;13.20;85.90
18694;DHT22;9477;51.414;10.362;2022-10-26T03:47:01;13.20;86.20
18694;DHT22;9477;51.414;10.362;2022-10-26T03:49:04;13.20;86.20
18694;DHT22;9477;51.414;10.362;2022-10-26T03:51:07;13.10;86.20
18694;DHT22;9477;51.414;10.362;2022-10-26T03:53:10;13.20;86.50
18694;DHT22;9477;51.414;10.362;2022-10-26T03:55:15;13.20;86.20
18694;DHT22;9477;51.414;10.362;2022-10-26T03:57:18;13.20;86.20
18694;DHT22;9477;51.414;10.362;2022-10-26T03:59:21;13.10;86.00
18694;DHT22;9477;51.414;10.362;2022-10-26T04:01:24;13.10;86.10
18694;DHT22;9477;51.414;10.362;2022-10-26T04:03:27;13.10;86.20
18694;DHT22;9477;51.414;10.362;2022-10-26T04:05:30;13.10;86.20
18694;DHT22;9477;51.414;10.362;2022-10-26T04:07:34;13.10;86.10
18694;DHT22;9477;51.414;10.362;2022-10-26T04:09:37;13.10;85.90
18694;DHT22;9477;51.414;10.362;2022-10-26T04:11:41;13.00;86.00
18694;DHT22;9477;51.414;10.362;2022-10-26T04:13:44;13.10;86.20
18694;DHT22;9477;51.414;10.362;2022-10-26T04:15:49;13.00;86.00
18694;DHT22;9477;51.414;10.362;2022-10-26T04:17:56;13.00;86.20
18694;DHT22;9477;51.414;10.362;2022-10-26T04:19:59;13.00;86.20
18694;DHT22;9477;51.414;10.362;2022-10-26T04:22:02;13.00;86.10
18694;DHT22;9477;51.414;10.362;2022-10-26T04:24:05;13.00;86.20
18694;DHT22;9477;51.414;10.362;2022-10-26T04:26:08;13.10;86.30
18694;DHT22;9477;51.414;10.362;2022-10-26T04:28:13;13.10;86.30
18694;DHT22;9477;51.414;10.362;2022-10-26T04:30:16;13.10;86.50
18694;DHT22;9477;51.414;10.362;2022-10-26T04:32:19;13.10;86.50
18694;DHT22;9477;51.414;10.362;2022-10-26T04:34:22;13.10;86.50
18694;DHT22;9477;51.414;10.362;2022-10-26T04:36:25;13.00;86.20
18694;DHT22;9477;51.414;10.362;2022-10-26T04:38:28;13.00;86.20
18694;DHT22;9477;51.414;10.362;2022-10-26T04:40:32;13.00;86.40
18694;DHT22;9477;51.414;10.362;2022-10-26T04:42:40;13.00;86.70
18694;DHT22;9477;51.414;10.362;2022-10-26T04:44:44;13.00;86.90
18694;DHT22;9477;51.414;10.362;2022-10-26T04:46:47;13.00;86.90
18694;DHT22;9477;51.414;10.362;2022-10-26T04:48:50;13.10;87.00
18694;DHT22;9477;51.414;10.362;2022-10-26T04:50:53;13.10;86.90
18694;DHT22;9477;51.414;10.362;2022-10-26T04:52:56;13.10;86.90
18694;DHT22;9477;51.414;10.362;2022-10-26T04:54:59;13.10;87.00
18694;DHT22;9477;51.414;10.362;2022-10-26T04:57:02;13.10;87.00
18694;DHT22;9477;51.414;10.362;2022-10-26T04:59:05;13.10;86.90
18694;DHT22;9477;51.414;10.362;2022-10-26T05:01:09;13.10;86.70
18694;DHT22;9477;51.414;10.362;2022-10-26T05:03:12;13.10;86.70
18694;DHT22;9477;51.414;10.362;2022-10-26T05:05:15;13.10;86.70
18694;DHT22;9477;51.414;10.362;2022-10-26T05:07:18;13.10;86.60
18694;DHT22;9477;51.414;10.362;2022-10-26T05:09:21;13.10;86.70
18694;DHT22;9477;51.414;10.362;2022-10-26T05:11:24;13.10;86.70
18694;DHT22;9477;51.414;10.362;2022-10-26T05:13:27;13.10;86.70
18694;DHT22;9477;51.414;10.362;2022-10-26T05:15:30;13.10;86.70
18694;DHT22;9477;51.414;10.362;2022-10-26T05:17:34;13.10;86.70
18694;DHT22;9477;51.414;10.362;2022-10-26T05:19:37;13.10;86.80
18694;DHT22;9477;51.414;10.362;2022-10-26T05:21:40;13.10;86.80
18694;DHT22;9477;51.414;10.362;2022-10-26T05:23:43;13.10;86.90
18694;DHT22;9477;51.414;10.362;2022-10-26T05:25:49;13.10;87.50
18694;DHT22;9477;51.414;10.362;2022-10-26T05:27:56;13.20;86.80
18694;DHT22;9477;51.414;10.362;2022-10-26T05:30:01;13.20;87.00
18694;DHT22;9477;51.414;10.362;2022-10-26T05:32:04;13.10;86.80
18694;DHT22;9477;51.414;10.362;2022-10-26T05:34:08;13.20;87.00
18694;DHT22;9477;51.414;10.362;2022-10-26T05:36:11;13.20;87.00
18694;DHT22;9477;51.414;10.362;2022-10-26T05:38:15;13.20;87.10
18694;DHT22;9477;51.414;10.362;2022-10-26T05:40:19;13.20;87.30
18694;DHT22;9477;51.414;10.362;2022-10-26T05:42:22;13.20;87.20
18694;DHT22;9477;51.414;10.362;2022-10-26T05:44:26;13.20;87.30
18694;DHT22;9477;51.414;10.362;2022-10-26T05:46:29;13.30;87.50
18694;DHT22;9477;51.414;10.362;2022-10-26T05:48:32;13.30;87.50
18694;DHT22;9477;51.414;10.362;2022-10-26T05:50:36;13.30;87.50
18694;DHT22;9477;51.414;10.362;2022-10-26T05:52:39;13.40;87.50
18694;DHT22;9477;51.414;10.362;2022-10-26T05:54:42;13.40;88.10
18694;DHT22;9477;51.414;10.362;2022-10-26T05:56:45;13.40;87.30
18694;DHT22;9477;51.414;10.362;2022-10-26T05:58:49;13.50;87.40
18694;DHT22;9477;51.414;10.362;2022-10-26T06:01:01;13.50;87.40
18694;DHT22;9477;51.414;10.362;2022-10-26T06:03:22;13.50;87.60
18694;DHT22;9477;51.414;10.362;2022-10-26T06:05:29;13.40;87.60
18694;DHT22;9477;51.414;10.362;2022-10-26T06:07:37;13.40;87.70
18694;DHT22;9477;51.414;10.362;2022-10-26T06:09:40;13.40;87.80
18694;DHT22;9477;51.414;10.362;2022-10-26T06:11:43;13.50;87.80
18694;DHT22;9477;51.414;10.362;2022-10-26T06:13:47;13.50;87.90
18694;DHT22;9477;51.414;10.362;2022-10-26T06:16:08;13.50;87.80
18694;DHT22;9477;51.414;10.362;2022-10-26T06:18:19;13.50;88.00
18694;DHT22;9477;51.414;10.362;2022-10-26T06:20:42;13.50;88.00
18694;DHT22;9477;51.414;10.362;2022-10-26T06:23:04;13.60;88.00
18694;DHT22;9477;51.414;10.362;2022-10-26T06:25:18;13.60;88.00
18694;DHT22;9477;51.414;10.362;2022-10-26T06:27:30;13.60;88.10
18694;DHT22;9477;51.414;10.362;2022-10-26T06:29:41;13.60;88.20
18694;DHT22;9477;51.414;10.362;2022-10-26T06:31:46;13.60;88.20
18694;DHT22;9477;51.414;10.362;2022-10-26T06:33:50;13.70;88.10
18694;DHT22;9477;51.414;10.362;2022-10-26T06:36:02;13.70;88.10
18694;DHT22;9477;51.414;10.362;2022-10-26T06:38:12;13.70;88.10
18694;DHT22;9477;51.414;10.362;2022-10-26T06:40:17;13.70;88.20
18694;DHT22;9477;51.414;10.362;2022-10-26T06:42:20;13.70;88.30
18694;DHT22;9477;51.414;10.362;2022-10-26T06:44:23;13.70;88.30
18694;DHT22;9477;51.414;10.362;2022-10-26T06:46:35;13.70;88.40
18694;DHT22;9477;51.414;10.362;2022-10-26T06:48:47;13.80;88.50
18694;DHT22;9477;51.414;10.362;2022-10-26T06:50:52;13.80;88.60
18694;DHT22;9477;51.414;10.362;2022-10-26T06:53:03;13.80;88.50
18694;DHT22;9477;51.414;10.362;2022-10-26T06:55:13;13.90;88.60
18694;DHT22;9477;51.414;10.362;2022-10-26T06:57:18;13.90;88.50
18694;DHT22;9477;51.414;10.362;2022-10-26T06:59:31;14.00;88.70
18694;DHT22;9477;51.414;10.362;2022-10-26T07:01:34;13.90;88.60
18694;DHT22;9477;51.414;10.362;2022-10-26T07:03:37;14.00;88.50
18694;DHT22;9477;51.414;10.362;2022-10-26T07:05:40;14.00;88.70
18694;DHT22;9477;51.414;10.362;2022-10-26T07:07:45;14.10;88.90
18694;DHT22;9477;51.414;10.362;2022-10-26T07:09:50;14.10;88.90
18694;DHT22;9477;51.414;10.362;2022-10-26T07:11:54;14.10;88.90
18694;DHT22;9477;51.414;10.362;2022-10-26T07:13:57;14.10;88.90
18694;DHT22;9477;51.414;10.362;2022-10-26T07:16:00;14.10;89.10
18694;DHT22;9477;51.414;10.362;2022-10-26T07:18:04;14.20;89.20
18694;DHT22;9477;51.414;10.362;2022-10-26T07:20:08;14.20;89.30
18694;DHT22;9477;51.414;10.362;2022-10-26T07:22:11;14.30;89.20
18694;DHT22;9477;51.414;10.362;2022-10-26T07:24:14;14.40;89.20
18694;DHT22;9477;51.414;10.362;2022-10-26T07:26:17;14.40;89.20
18694;DHT22;9477;51.414;10.362;2022-10-26T07:28:22;14.40;89.20
18694;DHT22;9477;51.414;10.362;2022-10-26T07:30:25;14.50;89.40
18694;DHT22;9477;51.414;10.362;2022-10-26T07:32:27;14.60;89.30
18694;DHT22;9477;51.414;10.362;2022-10-26T07:34:31;14.60;89.40
18694;DHT22;9477;51.414;10.362;2022-10-26T07:36:34;14.60;89.50
18694;DHT22;9477;51.414;10.362;2022-10-26T07:38:37;14.70;89.70
18694;DHT22;9477;51.414;10.362;2022-10-26T07:40:40;14.70;89.70
18694;DHT22;9477;51.414;10.362;2022-10-26T07:42:43;14.80;90.10
18694;DHT22;9477;51.414;10.362;2022-10-26T07:44:50;14.80;89.70
18694;DHT22;9477;51.414;10.362;2022-10-26T07:46:52;14.90;89.80
18694;DHT22;9477;51.414;10.362;2022-10-26T07:48:55;14.90;89.80
18694;DHT22;9477;51.414;10.362;2022-10-26T07:51:00;14.90;89.70
18694;DHT22;9477;51.414;10.362;2022-10-26T07:53:04;15.00;90.00
18694;DHT22;9477;51.414;10.362;2022-10-26T07:55:08;15.10;90.00
18694;DHT22;9477;51.414;10.362;2022-10-26T07:57:11;15.10;90.00
18694;DHT22;9477;51.414;10.362;2022-10-26T07:59:14;15.20;90.00
18694;DHT22;9477;51.414;10.362;2022-10-26T08:01:19;15.20;89.80
18694;DHT22;9477;51.414;10.362;2022-10-26T08:03:23;15.20;90.00
18694;DHT22;9477;51.414;10.362;2022-10-26T08:05:26;15.30;90.00
18694;DHT22;9477;51.414;10.362;2022-10-26T08:07:29;15.30;90.00
18694;DHT22;9477;51.414;10.362;2022-10-26T08:09:32;15.30;90.00
18694;DHT22;9477;51.414;10.362;2022-10-26T08:11:34;15.40;90.00
18694;DHT22;9477;51.414;10.362;2022-10-26T08:13:38;15.40;90.00
18694;DHT22;9477;51.414;10.362;2022-10-26T08:15:41;15.40;90.00
18694;DHT22;9477;51.414;10.362;2022-10-26T08:17:45;15.50;90.20
18694;DHT22;9477;51.414;10.362;2022-10-26T08:19:48;15.50;90.20
18694;DHT22;9477;51.414;10.362;2022-10-26T08:21:51;15.60;90.30
18694;DHT22;9477;51.414;10.362;2022-10-26T08:23:54;15.60;90.30
18694;DHT22;9477;51.414;10.362;2022-10-26T08:25:58;15.70;90.40
18694;DHT22;9477;51.414;10.362;2022-10-26T08:28:02;15.80;90.80
18694;DHT22;9477;51.414;10.362;2022-10-26T08:30:06;15.80;90.50
18694;DHT22;9477;51.414;10.362;2022-10-26T08:32:09;15.90;90.60
18694;DHT22;9477;51.414;10.362;2022-10-26T08:34:14;16.00;90.50
18694;DHT22;9477;51.414;10.362;2022-10-26T08:36:21;16.00;90.50
18694;DHT22;9477;51.414;10.362;2022-10-26T08:38:24;16.10;90.60
18694;DHT22;9477;51.414;10.362;2022-10-26T08:40:31;16.20;90.70
18694;DHT22;9477;51.414;10.362;2022-10-26T08:42:39;16.20;90.70
18694;DHT22;9477;51.414;10.362;2022-10-26T08:44:45;16.30;90.80
18694;DHT22;9477;51.414;10.362;2022-10-26T08:46:50;16.40;90.80
18694;DHT22;9477;51.414;10.362;2022-10-26T08:49:01;16.50;90.80
18694;DHT22;9477;51.414;10.362;2022-10-26T08:51:11;16.60;90.90
18694;DHT22;9477;51.414;10.362;2022-10-26T08:53:20;16.60;90.90
18694;DHT22;9477;51.414;10.362;2022-10-26T08:55:32;16.60;90.90
18694;DHT22;9477;51.414;10.362;2022-10-26T08:57:39;16.60;90.90
18694;DHT22;9477;51.414;10.362;2022-10-26T08:59:46;16.70;90.90
18694;DHT22;9477;51.414;10.362;2022-10-26T09:01:50;16.70;90.90
18694;DHT22;9477;51.414;10.362;2022-10-26T09:03:55;16.70;90.60
18694;DHT22;9477;51.414;10.362;2022-10-26T09:06:08;16.70;90.70
18694;DHT22;9477;51.414;10.362;2022-10-26T09:08:17;16.70;90.70
18694;DHT22;9477;51.414;10.362;2022-10-26T09:10:37;16.70;90.60
18694;DHT22;9477;51.414;10.362;2022-10-26T09:12:44;16.80;90.70
18694;DHT22;9477;51.414;10.362;2022-10-26T09:14:59;16.80;90.60
18694;DHT22;9477;51.414;10.362;2022-10-26T09:17:11;16.80;90.70
18694;DHT22;9477;51.414;10.362;2022-10-26T09:19:27;16.90;90.70
18694;DHT22;9477;51.414;10.362;2022-10-26T09:21:44;16.90;90.60
18694;DHT22;9477;51.414;10.362;2022-10-26T09:24:00;17.00;90.80
18694;DHT22;9477;51.414;10.362;2022-10-26T09:26:10;17.00;90.90
18694;DHT22;9477;51.414;10.362;2022-10-26T09:28:16;17.10;90.90
18694;DHT22;9477;51.414;10.362;2022-10-26T09:30:21;17.10;90.90
18694;DHT22;9477;51.414;10.362;2022-10-26T09:32:27;17.20;91.00
18694;DHT22;9477;51.414;10.362;2022-10-26T09:34:36;17.20;90.90
18694;DHT22;9477;51.414;10.362;2022-10-26T09:36:42;17.20;90.90
18694;DHT22;9477;51.414;10.362;2022-10-26T09:38:52;17.20;90.90
18694;DHT22;9477;51.414;10.362;2022-10-26T09:41:03;17.30;91.00
18694;DHT22;9477;51.414;10.362;2022-10-26T09:43:11;17.30;91.00
18694;DHT22;9477;51.414;10.362;2022-10-26T09:45:19;17.30;90.90
18694;DHT22;9477;51.414;10.362;2022-10-26T09:47:30;17.40;90.90
18694;DHT22;9477;51.414;10.362;2022-10-26T09:49:40;17.40;90.90
18694;DHT22;9477;51.414;10.362;2022-10-26T09:51:47;17.40;90.80
18694;DHT22;9477;51.414;10.362;2022-10-26T09:53:50;17.40;90.80
18694;DHT22;9477;51.414;10.362;2022-10-26T09:56:00;17.50;90.80
18694;DHT22;9477;51.414;10.362;2022-10-26T09:58:11;17.50;90.80
18694;DHT22;9477;51.414;10.362;2022-10-26T10:00:18;17.50;90.90
18694;DHT22;9477;51.414;10.362;2022-10-26T10:02:33;17.60;90.90
18694;DHT22;9477;51.414;10.362;2022-10-26T10:04:45;17.60;90.90
18694;DHT22;9477;51.414;10.362;2022-10-26T10:06:50;17.70;91.00
18694;DHT22;9477;51.414;10.362;2022-10-26T10:09:04;17.70;90.90
18694;DHT22;9477;51.414;10.362;2022-10-26T10:11:12;17.80;90.90
18694;DHT22;9477;51.414;10.362;2022-10-26T10:13:18;17.80;90.90
18694;DHT22;9477;51.414;10.362;2022-10-26T10:15:23;17.90;90.90
18694;DHT22;9477;51.414;10.362;2022-10-26T10:17:27;18.00;90.90
18694;DHT22;9477;51.414;10.362;2022-10-26T10:19:31;18.10;90.80
18694;DHT22;9477;51.414;10.362;2022-10-26T10:21:35;18.10;90.80
18694;DHT22;9477;51.414;10.362;2022-10-26T10:23:48;18.20;90.70
18694;DHT22;9477;51.414;10.362;2022-10-26T10:25:58;18.20;90.50
18694;DHT22;9477;51.414;10.362;2022-10-26T10:28:02;18.20;90.60
18694;DHT22;9477;51.414;10.362;2022-10-26T10:30:20;18.20;90.50
18694;DHT22;9477;51.414;10.362;2022-10-26T10:32:25;18.30;90.50
18694;DHT22;9477;51.414;10.362;2022-10-26T10:34:31;18.30;90.40
18694;DHT22;9477;51.414;10.362;2022-10-26T10:36:39;18.30;90.40
18694;DHT22;9477;51.414;10.362;2022-10-26T10:38:43;18.40;90.40
18694;DHT22;9477;51.414;10.362;2022-10-26T10:40:53;18.40;90.30
18694;DHT22;9477;51.414;10.362;2022-10-26T10:43:05;18.40;90.20
18694;DHT22;9477;51.414;10.362;2022-10-26T10:45:19;18.40;90.10
18694;DHT22;9477;51.414;10.362;2022-10-26T10:47:24;18.40;90.00
18694;DHT22;9477;51.414;10.362;2022-10-26T10:49:29;18.40;90.10
18694;DHT22;9477;51.414;10.362;2022-10-26T10:51:37;18.40;90.10
18694;DHT22;9477;51.414;10.362;2022-10-26T10:53:44;18.40;90.10
18694;DHT22;9477;51.414;10.362;2022-10-26T10:56:02;18.40;90.00
18694;DHT22;9477;51.414;10.362;2022-10-26T10:58:18;18.40;90.00
18694;DHT22;9477;51.414;10.362;2022-10-26T11:00:26;18.40;90.00
18694;DHT22;9477;51.414;10.362;2022-10-26T11:02:42;18.40;90.00
18694;DHT22;9477;51.414;10.362;2022-10-26T11:05:10;18.40;90.10
18694;DHT22;9477;51.414;10.362;2022-10-26T11:07:27;18.40;89.90
18694;DHT22;9477;51.414;10.362;2022-10-26T11:09:33;18.40;90.10
18694;DHT22;9477;51.414;10.362;2022-10-26T11:11:43;18.50;90.10
18694;DHT22;9477;51.414;10.362;2022-10-26T11:13:52;18.50;90.10
18694;DHT22;9477;51.414;10.362;2022-10-26T11:16:01;18.60;90.10
18694;DHT22;9477;51.414;10.362;2022-10-26T11:18:07;18.60;90.00
18694;DHT22;9477;51.414;10.362;2022-10-26T11:20:16;18.60;90.00
18694;DHT22;9477;51.414;10.362;2022-10-26T11:22:23;18.60;90.00
18694;DHT22;9477;51.414;10.362;2022-10-26T11:24:30;18.70;90.00
18694;DHT22;9477;51.414;10.362;2022-10-26T11:26:41;18.80;90.10
18694;DHT22;9477;51.414;10.362;2022-10-26T11:28:49;18.90;90.10
18694;DHT22;9477;51.414;10.362;2022-10-26T11:30:57;18.90;90.00
18694;DHT22;9477;51.414;10.362;2022-10-26T11:33:05;19.00;90.00
18694;DHT22;9477;51.414;10.362;2022-10-26T11:35:13;19.00;90.10
18694;DHT22;9477;51.414;10.362;2022-10-26T11:37:23;19.10;90.00
18694;DHT22;9477;51.414;10.362;2022-10-26T11:39:33;19.10;89.80
18694;DHT22;9477;51.414;10.362;2022-10-26T11:41:44;19.20;89.80
18694;DHT22;9477;51.414;10.362;2022-10-26T11:43:53;19.20;89.30
18694;DHT22;9477;51.414;10.362;2022-10-26T11:46:08;19.20;89.30
18694;DHT22;9477;51.414;10.362;2022-10-26T11:48:20;19.20;89.50
18694;DHT22;9477;51.414;10.362;2022-10-26T11:50:27;19.30;89.60
18694;DHT22;9477;51.414;10.362;2022-10-26T11:52:38;19.30;89.80
18694;DHT22;9477;51.414;10.362;2022-10-26T11:54:46;19.40;89.40
18694;DHT22;9477;51.414;10.362;2022-10-26T11:56:55;19.40;89.80
18694;DHT22;9477;51.414;10.362;2022-10-26T11:58:58;19.40;89.40
18694;DHT22;9477;51.414;10.362;2022-10-26T12:01:07;19.50;89.50
18694;DHT22;9477;51.414;10.362;2022-10-26T12:03:14;19.50;89.50
18694;DHT22;9477;51.414;10.362;2022-10-26T12:05:21;19.50;89.30
18694;DHT22;9477;51.414;10.362;2022-10-26T12:07:28;19.60;89.40
18694;DHT22;9477;51.414;10.362;2022-10-26T12:09:33;19.60;89.30
18694;DHT22;9477;51.414;10.362;2022-10-26T12:11:42;19.70;89.60
18694;DHT22;9477;51.414;10.362;2022-10-26T12:13:53;19.80;89.80
18694;DHT22;9477;51.414;10.362;2022-10-26T12:16:03;19.90;89.80
18694;DHT22;9477;51.414;10.362;2022-10-26T12:18:13;20.00;89.70
18694;DHT22;9477;51.414;10.362;2022-10-26T12:20:57;20.00;89.50
18694;DHT22;9477;51.414;10.362;2022-10-26T12:23:03;20.00;89.10
18694;DHT22;9477;51.414;10.362;2022-10-26T12:25:18;20.00;89.20
18694;DHT22;9477;51.414;10.362;2022-10-26T12:27:29;20.00;89.20
18694;DHT22;9477;51.414;10.362;2022-10-26T12:29:43;20.10;89.20
18694;DHT22;9477;51.414;10.362;2022-10-26T12:31:46;20.10;89.10
18694;DHT22;9477;51.414;10.362;2022-10-26T12:33:50;20.20;89.10
18694;DHT22;9477;51.414;10.362;2022-10-26T12:35:53;20.30;89.00
18694;DHT22;9477;51.414;10.362;2022-10-26T12:37:56;20.30;88.80
18694;DHT22;9477;51.414;10.362;2022-10-26T12:42:42;20.40;88.40
18694;DHT22;9477;51.414;10.362;2022-10-26T12:50:18;20.50;88.40
18694;DHT22;9477;51.414;10.362;2022-10-26T12:52:44;20.50;88.00
18694;DHT22;9477;51.414;10.362;2022-10-26T12:55:12;20.50;88.30
18694;DHT22;9477;51.414;10.362;2022-10-26T12:57:21;20.50;88.20
18694;DHT22;9477;51.414;10.362;2022-10-26T12:59:32;20.40;88.50
18694;DHT22;9477;51.414;10.362;2022-10-26T13:02:02;20.40;88.10
18694;DHT22;9477;51.414;10.362;2022-10-26T13:07:08;20.40;88.00
18694;DHT22;9477;51.414;10.362;2022-10-26T13:09:20;20.40;88.20
18694;DHT22;9477;51.414;10.362;2022-10-26T13:11:27;20.50;88.50
18694;DHT22;9477;51.414;10.362;2022-10-26T13:13:32;20.60;88.50
18694;DHT22;9477;51.414;10.362;2022-10-26T13:15:38;20.60;88.50
18694;DHT22;9477;51.414;10.362;2022-10-26T13:17:42;20.60;88.60
18694;DHT22;9477;51.414;10.362;2022-10-26T13:19:55;20.70;88.60
18694;DHT22;9477;51.414;10.362;2022-10-26T13:22:00;20.70;88.20
18694;DHT22;9477;51.414;10.362;2022-10-26T13:24:04;20.70;87.90
18694;DHT22;9477;51.414;10.362;2022-10-26T13:26:10;20.70;88.10
18694;DHT22;9477;51.414;10.362;2022-10-26T13:28:33;20.70;88.10
18694;DHT22;9477;51.414;10.362;2022-10-26T13:30:47;20.80;88.00
18694;DHT22;9477;51.414;10.362;2022-10-26T13:32:51;20.80;88.00
18694;DHT22;9477;51.414;10.362;2022-10-26T13:34:56;20.80;88.00